Time;durP1;ratioP1;P1;durP2;ratioP2;P2;SDS_P1;SDS_P2;PMS_P1;PMS_P2;Temp;Humidity;BMP_temperature;BMP_pressure;BME280_temperature;BME280_humidity;BME280_pressure;Samples;Min_cycle;Max_cycle;Signal;HPM_P1;HPM_P2
2023/07/25 00:02:23;;;;;;;2.60;1.83;;;;;;;15.45;100.00;100504.81;4994246;28;20037;-78
2023/07/25 00:04:48;;;;;;;4.30;2.15;;;;;;;15.55;100.00;100506.72;4991082;28;20033;-78
2023/07/25 00:07:13;;;;;;;5.57;1.70;;;;;;;15.23;100.00;100507.09;4999886;28;20468;-79
2023/07/25 00:09:39;;;;;;;4.70;2.15;;;;;;;15.42;100.00;100503.66;5009694;28;20029;-78
2023/07/25 00:12:04;;;;;;;3.65;2.10;;;;;;;15.39;100.00;100498.03;5004569;28;20570;-78
2023/07/25 00:14:31;;;;;;;2.10;1.90;;;;;;;15.39;100.00;100503.69;4999925;28;20089;-79
2023/07/25 00:16:56;;;;;;;8.68;2.10;;;;;;;15.38;100.00;100502.09;5006245;28;20029;-78
2023/07/25 00:19:22;;;;;;;3.22;2.08;;;;;;;15.41;100.00;100498.44;5000911;28;20671;-79
2023/07/25 00:21:47;;;;;;;6.00;2.30;;;;;;;15.32;100.00;100498.13;4997778;28;20029;-78
2023/07/25 00:24:12;;;;;;;2.25;2.05;;;;;;;15.32;100.00;100492.50;4995839;28;20113;-78
2023/07/25 00:26:38;;;;;;;3.45;1.65;;;;;;;15.36;100.00;100493.25;4998595;28;20057;-78
2023/07/25 00:29:04;;;;;;;5.90;2.40;;;;;;;15.25;100.00;100488.53;5000570;28;20483;-78
2023/07/25 00:31:29;;;;;;;6.93;2.22;;;;;;;15.27;100.00;100490.16;4998368;28;20053;-79
2023/07/25 00:33:55;;;;;;;5.85;1.80;;;;;;;15.34;100.00;100490.84;5001643;28;20117;-79
2023/07/25 00:36:20;;;;;;;6.22;2.05;;;;;;;15.30;100.00;100494.94;5002002;28;20029;-78
2023/07/25 00:38:45;;;;;;;5.13;2.58;;;;;;;15.23;100.00;100493.78;5000219;28;20513;-78
2023/07/25 00:41:11;;;;;;;5.57;2.05;;;;;;;15.29;100.00;100496.16;5013847;28;20108;-78
2023/07/25 00:43:36;;;;;;;7.32;2.03;;;;;;;15.34;100.00;100501.34;5001225;28;20038;-78
2023/07/25 00:46:01;;;;;;;5.07;1.88;;;;;;;15.27;100.00;100499.41;5006427;28;20030;-79
2023/07/25 00:48:29;;;;;;;5.22;2.42;;;;;;;15.23;100.00;100502.25;5002224;28;20026;-78
2023/07/25 00:50:54;;;;;;;6.65;2.53;;;;;;;15.19;100.00;100512.75;5000161;28;20059;-78
2023/07/25 00:53:20;;;;;;;7.75;2.83;;;;;;;15.17;100.00;100512.38;5008833;28;20736;-78
2023/07/25 00:55:48;;;;;;;4.15;1.60;;;;;;;15.17;100.00;100512.38;4993768;28;20034;-79
2023/07/25 00:58:13;;;;;;;3.30;2.97;;;;;;;15.12;100.00;100512.84;4996528;28;20024;-78
2023/07/25 01:00:39;;;;;;;4.60;2.08;;;;;;;15.02;100.00;100497.63;5012369;28;20383;-79
2023/07/25 01:03:05;;;;;;;5.22;2.00;;;;;;;15.01;100.00;100492.41;5000480;28;20461;-78
2023/07/25 01:05:34;;;;;;;4.20;1.95;;;;;;;15.02;100.00;100494.03;4996801;28;20026;-79
2023/07/25 01:08:00;;;;;;;4.80;1.73;;;;;;;15.02;100.00;100496.84;4992438;28;20022;-78
2023/07/25 01:10:25;;;;;;;3.80;2.08;;;;;;;15.05;100.00;100496.00;4994260;28;20037;-78
2023/07/25 01:12:51;;;;;;;2.92;1.88;;;;;;;15.05;100.00;100490.34;4993851;28;20048;-78
2023/07/25 01:15:16;;;;;;;3.05;1.60;;;;;;;15.07;100.00;100499.19;4994772;28;20030;-78
2023/07/25 01:17:42;;;;;;;3.88;2.70;;;;;;;14.96;100.00;100499.31;4998204;28;20034;-79
2023/07/25 01:20:10;;;;;;;2.75;2.13;;;;;;;14.99;100.00;100497.69;4995295;28;20050;-78
2023/07/25 01:22:36;;;;;;;5.97;2.08;;;;;;;14.99;100.00;100483.59;4995543;28;20508;-78
2023/07/25 01:25:02;;;;;;;4.45;3.47;;;;;;;14.97;100.00;100483.22;4998037;28;20092;-79
2023/07/25 01:27:27;;;;;;;4.22;2.00;;;;;;;14.99;100.00;100480.78;5001180;28;20030;-78
2023/07/25 01:29:53;;;;;;;2.72;2.08;;;;;;;15.00;100.00;100497.25;4992236;28;20029;-79
2023/07/25 01:32:18;;;;;;;5.15;2.72;;;;;;;14.99;100.00;100492.06;4997142;28;20115;-79
2023/07/25 01:34:43;;;;;;;5.78;2.28;;;;;;;14.90;100.00;100500.19;4996701;28;20168;-78
2023/07/25 01:37:11;;;;;;;6.25;3.25;;;;;;;14.89;100.00;100492.97;4997796;28;20527;-79
2023/07/25 01:39:37;;;;;;;5.68;2.40;;;;;;;14.80;100.00;100499.06;4995770;28;20505;-78
2023/07/25 01:42:02;;;;;;;3.15;2.00;;;;;;;14.86;100.00;100496.59;4995213;28;20030;-78
2023/07/25 01:44:28;;;;;;;6.65;2.50;;;;;;;14.80;100.00;100485.78;5013141;28;20116;-78
2023/07/25 01:46:56;;;;;;;4.50;2.42;;;;;;;14.88;100.00;100491.34;4994679;28;20037;-78
2023/07/25 01:49:22;;;;;;;6.93;2.72;;;;;;;14.89;100.00;100498.59;5002519;28;20034;-78
2023/07/25 01:51:47;;;;;;;4.28;2.13;;;;;;;14.82;100.00;100494.63;5001791;28;20046;-78
2023/07/25 01:54:13;;;;;;;5.80;2.78;;;;;;;14.82;100.00;100500.25;5002831;28;20160;-78
2023/07/25 01:56:38;;;;;;;4.28;2.17;;;;;;;14.83;100.00;100495.41;4998745;28;20785;-78
2023/07/25 01:59:05;;;;;;;2.90;1.90;;;;;;;14.83;100.00;100504.66;4993322;28;20028;-78
2023/07/25 02:01:30;;;;;;;8.07;3.22;;;;;;;14.73;100.00;100505.56;5001624;28;20030;-78
2023/07/25 02:03:56;;;;;;;4.63;2.60;;;;;;;14.79;100.00;100495.44;4997764;28;20045;-78
2023/07/25 02:06:21;;;;;;;5.97;2.35;;;;;;;14.77;100.00;100500.69;4997355;28;20046;-78
2023/07/25 02:08:46;;;;;;;3.53;2.22;;;;;;;14.74;100.00;100493.09;5001776;28;20045;-78
2023/07/25 02:11:12;;;;;;;5.85;2.28;;;;;;;14.79;100.00;100494.66;4999741;28;20120;-78
2023/07/25 02:13:37;;;;;;;5.80;2.05;;;;;;;14.75;100.00;100499.50;4992407;28;20113;-78
2023/07/25 02:16:03;;;;;;;7.03;2.40;;;;;;;14.83;100.00;100501.84;4998376;28;20032;-78
2023/07/25 02:18:28;;;;;;;4.97;2.33;;;;;;;14.85;100.00;100487.34;4997408;28;20033;-78
2023/07/25 02:20:53;;;;;;;6.03;2.00;;;;;;;14.82;100.00;100485.34;4997254;28;20038;-78
2023/07/25 02:23:19;;;;;;;7.68;2.42;;;;;;;14.80;100.00;100476.53;4997698;28;20406;-78
2023/07/25 02:25:46;;;;;;;5.40;2.00;;;;;;;14.82;100.00;100483.34;4994742;28;20039;-79
2023/07/25 02:28:11;;;;;;;2.60;1.83;;;;;;;14.88;100.00;100480.88;4997684;28;20045;-78
2023/07/25 02:30:36;;;;;;;7.43;2.17;;;;;;;14.83;100.00;100478.50;5000403;28;20684;-78
2023/07/25 02:33:02;;;;;;;5.47;2.20;;;;;;;14.90;100.00;100475.59;4994444;28;20033;-78
2023/07/25 02:35:27;;;;;;;3.78;2.20;;;;;;;14.87;100.00;100481.31;4989531;28;20084;-78
2023/07/25 02:37:52;;;;;;;6.00;1.80;;;;;;;14.84;100.00;100483.72;5007921;28;20371;-78
2023/07/25 02:40:18;;;;;;;3.45;1.45;;;;;;;14.89;100.00;100478.88;5000628;28;20018;-78
2023/07/25 02:42:43;;;;;;;7.18;2.55;;;;;;;14.85;100.00;100481.72;5001131;28;20029;-78
2023/07/25 02:45:09;;;;;;;5.38;2.00;;;;;;;14.83;100.00;100484.16;5003619;28;20044;-78
2023/07/25 02:47:34;;;;;;;9.90;2.60;;;;;;;14.73;100.00;100491.47;4995200;28;20022;-78
2023/07/25 02:50:00;;;;;;;6.53;2.42;;;;;;;14.71;100.00;100470.56;5001216;28;20616;-78
2023/07/25 02:52:25;;;;;;;5.07;1.40;;;;;;;14.76;100.00;100473.75;4998911;28;20113;-78
2023/07/25 02:54:50;;;;;;;2.10;1.50;;;;;;;14.76;100.00;100475.78;4994098;28;20049;-79
2023/07/25 02:57:16;;;;;;;3.00;1.90;;;;;;;14.73;100.00;100482.22;5001325;28;20036;-78
2023/07/25 02:59:41;;;;;;;3.20;1.50;;;;;;;14.67;100.00;100481.84;4999574;28;20100;-78
2023/07/25 03:02:07;;;;;;;7.35;2.83;;;;;;;14.74;100.00;100481.03;5013630;28;20056;-78
2023/07/25 03:04:32;;;;;;;5.20;1.65;;;;;;;14.77;100.00;100480.97;4995029;28;20171;-78
2023/07/25 03:06:57;;;;;;;4.75;1.67;;;;;;;14.75;100.00;100483.41;4993713;28;20045;-78
2023/07/25 03:09:23;;;;;;;5.32;2.78;;;;;;;14.68;100.00;100471.41;4996633;28;20033;-78
2023/07/25 03:11:48;;;;;;;6.20;1.67;;;;;;;14.62;100.00;100468.22;4996054;28;20076;-79
2023/07/25 03:14:14;;;;;;;2.33;1.52;;;;;;;14.58;100.00;100481.53;4997659;28;20026;-78
2023/07/25 03:16:40;;;;;;;5.40;2.10;;;;;;;14.59;100.00;100477.53;5001224;28;20497;-78
2023/07/25 03:19:05;;;;;;;5.40;1.70;;;;;;;14.64;100.00;100477.06;4994563;28;20036;-79
2023/07/25 03:21:30;;;;;;;4.32;2.60;;;;;;;14.60;100.00;100476.28;4997423;28;20037;-78
2023/07/25 03:23:56;;;;;;;2.00;1.40;;;;;;;14.62;100.00;100480.28;5002092;28;20038;-78
2023/07/25 03:26:21;;;;;;;5.68;1.98;;;;;;;14.51;100.00;100487.22;4996184;28;20030;-78
2023/07/25 03:28:47;;;;;;;5.80;2.90;;;;;;;14.57;100.00;100491.22;5001576;28;20742;-78
2023/07/25 03:31:12;;;;;;;9.45;2.65;;;;;;;14.55;100.00;100496.44;5003430;28;20045;-78
2023/07/25 03:33:37;;;;;;;3.80;2.08;;;;;;;14.57;100.00;100489.19;4990028;28;20057;-78
2023/07/25 03:36:03;;;;;;;3.42;1.90;;;;;;;14.68;100.00;100483.47;4997233;28;20066;-78
2023/07/25 03:38:29;;;;;;;4.45;1.75;;;;;;;14.72;100.00;100489.88;4997654;28;20041;-78
2023/07/25 03:40:54;;;;;;;5.07;1.73;;;;;;;14.63;100.00;100478.28;4999209;28;20034;-79
2023/07/25 03:43:20;;;;;;;7.30;2.47;;;;;;;14.69;100.00;100487.88;5014246;28;20509;-78
2023/07/25 03:45:46;;;;;;;4.47;2.13;;;;;;;14.62;100.00;100493.59;4995929;28;20042;-78
2023/07/25 03:48:11;;;;;;;4.35;2.03;;;;;;;14.62;100.00;100491.56;5001135;28;20045;-78
2023/07/25 03:50:37;;;;;;;9.15;1.70;;;;;;;14.73;100.00;100491.47;5001672;28;20036;-78
2023/07/25 03:53:04;;;;;;;3.30;2.20;;;;;;;14.68;100.00;100497.56;5003848;28;20929;-78
2023/07/25 03:55:30;;;;;;;4.75;1.90;;;;;;;14.61;100.00;100494.81;5001523;28;20483;-79
2023/07/25 03:57:55;;;;;;;5.22;1.83;;;;;;;14.46;100.00;100499.69;5003389;28;20044;-78
2023/07/25 04:00:20;;;;;;;7.20;2.35;;;;;;;14.58;100.00;100502.06;5000009;28;20029;-78
2023/07/25 04:02:46;;;;;;;2.85;1.73;;;;;;;14.70;100.00;100503.56;5002495;28;20053;-78
2023/07/25 04:05:11;;;;;;;4.43;2.13;;;;;;;14.67;100.00;100507.22;4997854;28;20056;-78
2023/07/25 04:07:36;;;;;;;3.10;2.08;;;;;;;14.70;100.00;100506.41;4996974;28;20050;-78
2023/07/25 04:10:02;;;;;;;4.18;1.73;;;;;;;14.66;100.00;100504.81;4997092;28;20038;-78
2023/07/25 04:12:28;;;;;;;4.03;1.95;;;;;;;14.79;100.00;100506.72;5001214;28;20026;-78
2023/07/25 04:14:54;;;;;;;5.40;1.58;;;;;;;14.77;100.00;100514.78;4996316;28;20033;-78
2023/07/25 04:17:20;;;;;;;4.80;1.80;;;;;;;14.83;100.00;100506.69;4992250;28;20117;-78
2023/07/25 04:19:45;;;;;;;2.38;1.55;;;;;;;14.80;100.00;100508.31;4999237;28;20744;-78
2023/07/25 04:22:11;;;;;;;5.93;2.00;;;;;;;14.83;100.00;100496.22;4999334;28;20049;-78
2023/07/25 04:24:36;;;;;;;4.72;2.22;;;;;;;14.89;100.00;100498.59;4996398;28;20041;-78
2023/07/25 04:27:02;;;;;;;5.28;2.00;;;;;;;14.94;100.00;100504.56;5003390;28;20045;-78
2023/07/25 04:29:27;;;;;;;3.95;2.20;;;;;;;14.87;100.00;100495.38;5003788;28;20025;-78
2023/07/25 04:31:53;;;;;;;6.10;1.52;;;;;;;14.84;100.00;100500.63;4994029;28;20029;-79
2023/07/25 04:34:18;;;;;;;5.72;1.83;;;;;;;14.91;100.00;100501.78;5002191;28;20030;-78
2023/07/25 04:36:43;;;;;;;4.38;1.92;;;;;;;14.96;100.00;100498.50;5001954;28;20025;-78
2023/07/25 04:39:09;;;;;;;9.00;1.83;;;;;;;14.98;100.00;100496.06;5001409;28;20095;-78
2023/07/25 04:41:34;;;;;;;5.25;1.60;;;;;;;15.07;100.00;100499.19;5006216;28;20435;-78
2023/07/25 04:44:00;;;;;;;5.05;1.90;;;;;;;15.01;100.00;100493.22;5007804;28;20025;-78
2023/07/25 04:46:25;;;;;;;4.85;2.00;;;;;;;15.02;100.00;100491.22;4996652;28;20120;-78
2023/07/25 04:48:51;;;;;;;2.58;1.85;;;;;;;15.05;100.00;100493.19;5005132;28;20023;-78
2023/07/25 04:51:16;;;;;;;7.43;2.03;;;;;;;15.05;100.00;100484.72;5006689;28;20088;-78
2023/07/25 04:53:41;;;;;;;2.58;1.50;;;;;;;15.10;100.00;100486.31;4997634;28;20080;-78
2023/07/25 04:56:07;;;;;;;2.47;1.90;;;;;;;15.11;100.00;100482.25;4998356;28;20109;-78
2023/07/25 04:58:32;;;;;;;4.50;1.52;;;;;;;15.16;100.00;100491.06;4996704;28;20030;-78
2023/07/25 05:00:58;;;;;;;4.72;1.65;;;;;;;15.15;100.00;100489.44;4994179;28;20025;-78
2023/07/25 05:03:25;;;;;;;6.75;1.98;;;;;;;15.13;100.00;100491.09;5003013;28;20030;-78
2023/07/25 05:05:51;;;;;;;5.47;1.50;;;;;;;15.15;100.00;100495.09;5001171;28;20079;-78
2023/07/25 05:08:17;;;;;;;2.75;1.35;;;;;;;15.16;100.00;100502.34;5000471;28;20076;-78
2023/07/25 05:10:42;;;;;;;5.07;1.60;;;;;;;15.22;100.00;100509.13;4992643;28;20490;-79
2023/07/25 05:13:07;;;;;;;6.75;1.75;;;;;;;15.20;100.00;100514.38;5006222;28;20544;-78
2023/07/25 05:15:33;;;;;;;4.05;1.50;;;;;;;15.23;100.00;100509.91;4990886;28;20039;-78
2023/07/25 05:17:58;;;;;;;4.72;2.20;;;;;;;15.28;100.00;100517.91;4993382;28;20359;-78
2023/07/25 05:20:24;;;;;;;5.30;2.15;;;;;;;15.33;100.00;100522.31;5007941;28;20525;-79
2023/07/25 05:22:49;;;;;;;6.85;1.90;;;;;;;15.31;100.00;100531.19;4995540;28;20498;-79
2023/07/25 05:25:14;;;;;;;7.00;2.42;;;;;;;15.30;100.00;100523.13;4994209;28;20117;-79
2023/07/25 05:27:40;;;;;;;8.88;2.13;;;;;;;15.29;100.00;100527.19;4993829;28;20111;-78
2023/07/25 05:30:06;;;;;;;4.07;2.03;;;;;;;15.20;100.00;100524.84;4993075;28;20113;-79
2023/07/25 05:32:31;;;;;;;6.90;2.05;;;;;;;15.21;100.00;100527.25;4998676;28;20034;-78
2023/07/25 05:34:56;;;;;;;10.63;1.95;;;;;;;15.30;100.00;100517.50;4997012;28;20379;-78
2023/07/25 05:37:22;;;;;;;4.40;2.63;;;;;;;15.21;100.00;100526.44;4993679;28;20029;-79
2023/07/25 05:39:51;;;;;;;9.90;2.15;;;;;;;15.27;100.00;100519.13;4992660;28;20075;-78
2023/07/25 05:42:16;;;;;;;8.80;2.25;;;;;;;15.25;100.00;100532.84;4994366;28;20029;-78
2023/07/25 05:44:41;;;;;;;2.83;1.70;;;;;;;15.23;100.00;100530.44;5007832;28;20671;-79
2023/07/25 05:47:07;;;;;;;8.20;3.33;;;;;;;15.32;100.00;100532.78;4991714;28;20038;-79
2023/07/25 05:49:32;;;;;;;3.17;1.60;;;;;;;15.21;100.00;100532.88;4996903;28;20026;-79
2023/07/25 05:51:57;;;;;;;6.25;1.85;;;;;;;15.09;100.00;100524.94;5013332;28;20133;-79
2023/07/25 05:54:23;;;;;;;4.32;1.48;;;;;;;15.16;100.00;100529.75;4991393;28;20030;-79
2023/07/25 05:56:48;;;;;;;2.92;1.70;;;;;;;15.12;100.00;100532.59;4998943;28;20538;-79
2023/07/25 05:59:14;;;;;;;6.90;2.70;;;;;;;15.21;100.00;100540.56;5004948;28;20038;-79
2023/07/25 06:01:39;;;;;;;5.32;1.75;;;;;;;15.16;100.00;100536.16;5013538;28;20117;-78
2023/07/25 06:04:05;;;;;;;6.88;1.73;;;;;;;15.20;100.00;100536.13;4997887;28;20033;-79
2023/07/25 06:06:30;;;;;;;3.95;1.80;;;;;;;15.22;100.00;100533.69;4995474;28;20112;-79
2023/07/25 06:08:56;;;;;;;6.35;2.38;;;;;;;15.36;100.00;100536.34;4999670;28;20034;-78
2023/07/25 06:11:23;;;;;;;5.88;2.05;;;;;;;15.34;100.00;100538.00;4997392;28;20057;-78
2023/07/25 06:13:49;;;;;;;6.28;2.03;;;;;;;15.32;100.00;100537.63;4994810;28;20543;-78
2023/07/25 06:16:16;;;;;;;10.75;1.50;;;;;;;15.28;100.00;100529.19;4993121;28;20057;-79
2023/07/25 06:18:41;;;;;;;8.60;1.58;;;;;;;15.16;100.00;100532.56;4988865;28;20084;-79
2023/07/25 06:21:06;;;;;;;7.07;1.95;;;;;;;15.29;100.00;100532.81;4993681;28;20034;-79
2023/07/25 06:23:32;;;;;;;5.50;1.75;;;;;;;15.47;100.00;100533.41;4995451;28;20394;-81
2023/07/25 06:25:57;;;;;;;5.60;1.70;;;;;;;15.48;100.00;100535.03;5001862;28;20061;-81
2023/07/25 06:28:23;;;;;;;4.80;1.50;;;;;;;15.48;100.00;100540.66;4998982;28;20050;-81
2023/07/25 06:30:48;;;;;;;6.80;1.90;;;;;;;15.16;100.00;100535.38;5002741;28;20037;-81
2023/07/25 06:33:15;;;;;;;6.55;1.95;;;;;;;15.25;100.00;100539.28;5004056;28;20033;-81
2023/07/25 06:35:40;;;;;;;5.43;1.48;;;;;;;15.29;100.00;100538.47;5005083;28;20068;-81
2023/07/25 06:38:06;;;;;;;6.57;2.72;;;;;;;15.11;100.00;100542.25;5000975;28;20538;-81
2023/07/25 06:40:31;;;;;;;8.38;2.17;;;;;;;14.97;100.00;100533.94;5002310;28;20060;-81
2023/07/25 06:42:56;;;;;;;6.70;2.67;;;;;;;15.23;100.00;100530.44;4995634;28;20057;-81
2023/07/25 06:45:22;;;;;;;3.67;2.00;;;;;;;15.43;100.00;100541.09;5000374;28;20034;-81
2023/07/25 06:47:47;;;;;;;4.97;1.77;;;;;;;15.35;100.00;100533.97;5017264;28;20026;-81
2023/07/25 06:50:12;;;;;;;3.28;1.83;;;;;;;15.52;100.00;100541.44;5005904;28;20465;-81
2023/07/25 06:52:38;;;;;;;6.50;1.42;;;;;;;15.56;100.00;100536.56;5010134;28;20026;-81
2023/07/25 06:55:03;;;;;;;6.78;1.75;;;;;;;15.52;100.00;100546.28;4999866;28;20026;-81
2023/07/25 06:57:29;;;;;;;6.20;1.60;;;;;;;15.50;100.00;100543.06;4998371;28;20381;-81
2023/07/25 06:59:55;;;;;;;3.08;1.23;;;;;;;15.45;99.60;100536.69;5001353;28;20034;-81
2023/07/25 07:02:20;;;;;;;5.38;1.52;;;;;;;15.65;100.00;100547.31;4997905;28;20026;-81
2023/07/25 07:04:46;;;;;;;6.97;1.65;;;;;;;15.67;99.97;100535.63;4993898;28;20584;-81
2023/07/25 07:07:11;;;;;;;8.02;1.50;;;;;;;16.49;100.00;100533.72;4979774;28;20038;-83
2023/07/25 07:09:37;;;;;;;4.82;1.30;;;;;;;17.50;100.00;100544.91;4995826;28;20085;-82
2023/07/25 07:12:02;;;;;;;2.55;1.70;;;;;;;18.49;98.97;100546.06;5000305;28;20045;-82
2023/07/25 07:14:28;;;;;;;6.90;1.73;;;;;;;18.27;97.00;100545.75;4997700;28;20497;-83
2023/07/25 07:16:53;;;;;;;5.32;1.63;;;;;;;17.16;92.43;100551.63;4999191;28;20034;-83
2023/07/25 07:19:19;;;;;;;5.40;1.73;;;;;;;17.67;98.22;100548.63;4998597;28;20021;-83
2023/07/25 07:21:44;;;;;;;1.35;0.93;;;;;;;17.49;95.26;100540.47;5002192;28;20367;-83
2023/07/25 07:24:09;;;;;;;3.70;1.35;;;;;;;17.85;87.45;100548.28;4998064;28;20478;-83
2023/07/25 07:26:35;;;;;;;2.55;1.00;;;;;;;18.24;93.20;100541.78;5000509;28;20121;-83
2023/07/25 07:29:00;;;;;;;5.00;2.53;;;;;;;18.59;91.19;100547.03;5000422;28;20383;-82
2023/07/25 07:31:26;;;;;;;3.85;0.90;;;;;;;18.15;81.77;100537.94;5003787;28;20474;-82
2023/07/25 07:33:52;;;;;;;2.95;0.90;;;;;;;18.05;90.01;100539.78;5004793;28;20041;-83
2023/07/25 07:36:17;;;;;;;4.82;0.80;;;;;;;17.09;85.30;100543.25;5000868;28;20053;-81
2023/07/25 07:38:43;;;;;;;3.78;1.02;;;;;;;16.67;88.40;100539.88;5000501;28;20525;-81
2023/07/25 07:41:08;;;;;;;1.40;1.10;;;;;;;16.71;88.50;100546.28;5013797;28;20034;-81
2023/07/25 07:43:33;;;;;;;3.28;0.80;;;;;;;16.27;87.43;100545.31;5003200;28;20462;-81
2023/07/25 07:45:59;;;;;;;4.35;1.35;;;;;;;16.44;91.26;100543.47;5014424;28;20434;-81
2023/07/25 07:48:24;;;;;;;4.30;1.52;;;;;;;16.42;90.31;100540.25;4995691;28;20030;-81
2023/07/25 07:50:50;;;;;;;1.92;0.68;;;;;;;16.59;89.48;100549.69;4999877;28;20040;-81
2023/07/25 07:53:15;;;;;;;1.02;0.73;;;;;;;16.74;88.36;100550.25;4995577;28;20518;-81
2023/07/25 07:55:41;;;;;;;2.15;1.10;;;;;;;16.77;87.10;100544.56;4995790;28;20252;-81
2023/07/25 07:58:06;;;;;;;3.08;1.05;;;;;;;16.72;86.19;100552.72;4996971;28;20033;-81
2023/07/25 08:00:32;;;;;;;1.70;0.70;;;;;;;16.75;85.42;100544.19;4989446;28;20376;-81
2023/07/25 08:02:58;;;;;;;2.42;0.80;;;;;;;16.81;86.08;100545.34;4997875;28;20028;-81
2023/07/25 08:05:23;;;;;;;1.05;0.50;;;;;;;16.74;86.98;100548.25;4999782;28;21826;-81
2023/07/25 08:07:49;;;;;;;1.33;0.60;;;;;;;16.69;86.56;100548.72;5018219;28;20034;-81
2023/07/25 08:10:14;;;;;;;2.35;0.75;;;;;;;16.80;84.74;100543.75;4995839;28;20030;-81
2023/07/25 08:12:40;;;;;;;2.55;0.90;;;;;;;17.19;85.32;100549.94;5004288;28;20033;-81
2023/07/25 08:15:07;;;;;;;2.95;0.90;;;;;;;17.00;86.47;100548.66;4992187;28;20037;-87
2023/07/25 08:17:32;;;;;;;3.08;0.90;;;;;;;17.01;86.22;100550.25;4997399;28;20678;-77
2023/07/25 08:19:59;;;;;;;2.50;0.65;;;;;;;17.10;86.03;100564.66;5004161;28;20030;-77
2023/07/25 08:22:24;;;;;;;2.88;0.80;;;;;;;17.18;85.80;100562.47;5004261;28;20498;-76
2023/07/25 08:24:53;;;;;;;2.85;0.70;;;;;;;17.19;85.13;100564.88;5001178;28;20036;-76
2023/07/25 08:27:19;;;;;;;3.88;0.82;;;;;;;17.33;85.76;100565.84;4999152;28;20832;-76
2023/07/25 08:29:48;;;;;;;2.78;0.95;;;;;;;17.03;87.15;100559.09;5008197;28;20474;-76
2023/07/25 08:32:14;;;;;;;0.60;0.40;;;;;;;17.01;85.56;100558.72;5006804;28;20029;-76
2023/07/25 08:34:40;;;;;;;2.03;0.80;;;;;;;16.93;85.84;100568.56;4999012;28;20029;-76
2023/07/25 08:37:06;;;;;;;2.72;0.77;;;;;;;16.92;83.94;100572.63;5003037;28;20037;-77
2023/07/25 08:39:32;;;;;;;1.05;0.65;;;;;;;16.93;85.28;100577.03;5001868;28;20033;-77
2023/07/25 08:41:58;;;;;;;3.08;0.55;;;;;;;17.19;80.36;100581.84;4997489;28;20030;-77
2023/07/25 08:44:26;;;;;;;4.32;0.80;;;;;;;17.18;77.47;100585.09;5004653;28;20556;-77
2023/07/25 08:46:53;;;;;;;4.38;1.02;;;;;;;17.14;75.65;100590.84;5008853;28;20048;-77
2023/07/25 08:49:25;;;;;;;1.77;0.82;;;;;;;17.25;78.91;100591.44;5011561;28;20022;-77
2023/07/25 08:51:54;;;;;;;4.47;2.30;;;;;;;17.26;76.34;100597.88;5009642;28;20427;-77
2023/07/25 08:54:37;;;;;;;3.90;0.77;;;;;;;17.32;75.61;100589.72;4998137;28;20033;-77
2023/07/25 08:57:03;;;;;;;2.78;1.00;;;;;;;17.34;76.38;100588.06;5007188;28;20542;-78
2023/07/25 08:59:30;;;;;;;3.92;0.90;;;;;;;17.50;77.55;100598.69;5003569;28;20116;-77
2023/07/25 09:01:56;;;;;;;3.17;1.05;;;;;;;17.88;92.08;100593.53;5000218;28;20477;-77
2023/07/25 09:04:23;;;;;;;7.35;1.25;;;;;;;18.18;85.51;100600.19;5011730;28;20041;-77
2023/07/25 09:06:49;;;;;;;2.15;0.88;;;;;;;18.13;73.77;100602.72;5001911;28;20061;-77
2023/07/25 09:09:14;;;;;;;3.42;0.80;;;;;;;17.82;74.97;100598.09;5000173;28;20485;-77
2023/07/25 09:11:40;;;;;;;2.60;0.70;;;;;;;17.96;75.41;100594.19;5003978;28;20160;-78
2023/07/25 09:14:05;;;;;;;1.83;1.13;;;;;;;17.56;76.27;100599.78;4999524;28;20489;-78
2023/07/25 09:16:31;;;;;;;4.82;0.80;;;;;;;17.83;75.72;100601.72;4999076;28;20441;-78
2023/07/25 09:18:56;;;;;;;5.00;1.02;;;;;;;18.15;73.88;100611.56;5004041;28;20050;-78
2023/07/25 09:21:22;;;;;;;1.17;0.70;;;;;;;17.86;73.99;100603.69;5015256;28;20382;-78
2023/07/25 09:23:58;;;;;;;2.78;0.77;;;;;;;17.39;75.60;100609.38;5002526;28;20397;-78
2023/07/25 09:26:30;;;;;;;3.95;1.00;;;;;;;17.82;73.84;100609.41;4995628;28;20025;-78
2023/07/25 09:28:58;;;;;;;1.38;0.70;;;;;;;17.97;73.00;100607.09;5000395;28;20025;-78
2023/07/25 09:31:24;;;;;;;2.58;0.80;;;;;;;18.01;75.73;100616.31;4998317;28;20050;-78
2023/07/25 09:33:52;;;;;;;3.00;0.60;;;;;;;18.19;76.93;100618.75;5005140;28;20522;-78
2023/07/25 09:36:18;;;;;;;1.75;0.90;;;;;;;17.95;76.08;100618.06;5004457;28;20037;-78
2023/07/25 09:38:52;;;;;;;2.60;1.30;;;;;;;17.66;75.37;100626.28;5004072;28;20041;-77
2023/07/25 09:41:19;;;;;;;3.05;0.68;;;;;;;18.08;74.00;100615.38;5004038;28;20044;-77
2023/07/25 09:43:44;;;;;;;3.63;0.75;;;;;;;17.99;75.38;100621.63;4996773;28;20026;-79
2023/07/25 09:46:10;;;;;;;5.80;0.90;;;;;;;17.78;78.17;100630.50;5021338;28;20029;-78
2023/07/25 09:48:36;;;;;;;3.90;0.70;;;;;;;17.67;79.26;100631.50;5002528;28;20028;-78
2023/07/25 09:51:03;;;;;;;3.67;0.80;;;;;;;17.70;79.64;100634.72;4997307;28;20034;-78
2023/07/25 09:53:29;;;;;;;4.10;0.63;;;;;;;18.15;76.91;100631.41;4995863;28;20026;-78
2023/07/25 09:55:55;;;;;;;5.47;0.93;;;;;;;18.27;76.31;100636.41;4996066;28;20036;-78
2023/07/25 09:58:22;;;;;;;4.68;1.00;;;;;;;18.40;73.31;100628.84;4999614;28;20030;-78
2023/07/25 10:00:48;;;;;;;2.00;0.68;;;;;;;18.38;72.03;100631.31;4996882;28;20034;-78
2023/07/25 10:03:14;;;;;;;3.20;1.10;;;;;;;18.24;73.28;100632.44;4999256;28;20493;-78
2023/07/25 10:05:43;;;;;;;2.20;1.05;;;;;;;17.84;76.38;100631.63;5002599;28;20125;-78
2023/07/25 10:08:10;;;;;;;2.22;0.80;;;;;;;18.22;75.56;100623.56;4996640;28;20118;-78
2023/07/25 10:10:36;;;;;;;1.35;0.60;;;;;;;18.29;73.76;100631.13;5001587;28;20045;-78
2023/07/25 10:13:01;;;;;;;1.25;0.55;;;;;;;18.38;71.11;100630.50;4999181;28;20038;-77
2023/07/25 10:15:27;;;;;;;1.95;0.50;;;;;;;18.63;72.60;100632.78;4998919;28;20037;-78
2023/07/25 10:18:01;;;;;;;3.10;0.60;;;;;;;18.78;71.92;100636.09;5000866;28;20057;-77
2023/07/25 10:20:27;;;;;;;7.47;0.80;;;;;;;18.80;69.51;100637.28;5004712;28;20038;-77
2023/07/25 10:22:52;;;;;;;3.05;0.60;;;;;;;18.88;64.78;100635.09;4999427;28;20052;-77
2023/07/25 10:25:27;;;;;;;1.83;0.50;;;;;;;19.13;67.74;100630.84;5005025;28;20033;-77
2023/07/25 10:27:58;;;;;;;1.92;0.47;;;;;;;19.02;67.09;100650.97;4999999;28;20408;-78
2023/07/25 10:30:28;;;;;;;2.92;0.68;;;;;;;18.38;69.69;100642.63;5001246;28;20091;-78
2023/07/25 10:32:58;;;;;;;1.30;0.80;;;;;;;18.64;72.87;100640.06;5001764;28;20026;-76
2023/07/25 10:35:49;;;;;;;4.50;0.70;;;;;;;19.08;71.33;100649.22;5002349;28;20033;-76
2023/07/25 10:38:30;;;;;;;1.23;0.80;;;;;;;18.94;65.54;100638.19;5000801;28;20026;-77
2023/07/25 10:41:16;;;;;;;1.27;0.52;;;;;;;18.89;67.28;100640.31;4999272;28;20030;-77
2023/07/25 10:43:55;;;;;;;2.03;0.95;;;;;;;18.89;69.38;100643.16;5007747;28;20084;-77
2023/07/25 10:46:32;;;;;;;4.55;0.90;;;;;;;19.01;69.93;100644.47;5001006;28;20033;-76
2023/07/25 10:49:02;;;;;;;4.50;0.98;;;;;;;19.08;70.88;100646.38;5018465;28;20488;-76
2023/07/25 10:51:53;;;;;;;2.13;0.80;;;;;;;19.19;69.47;100654.63;5007044;28;20502;-76
2023/07/25 10:54:24;;;;;;;7.53;1.88;;;;;;;19.37;67.65;100654.16;5012165;28;20029;-76
2023/07/25 10:57:23;;;;;;;1.48;0.63;;;;;;;19.54;65.33;100644.38;5005601;28;20033;-76
2023/07/25 10:59:59;;;;;;;5.72;1.00;;;;;;;19.73;66.28;100641.88;4971380;28;20099;-77
2023/07/25 11:02:33;;;;;;;3.35;0.82;;;;;;;19.22;69.91;100646.00;5011913;28;20085;-80
2023/07/25 11:05:13;;;;;;;1.75;0.90;;;;;;;19.42;66.50;100645.91;5005647;28;20021;-78
2023/07/25 11:07:40;;;;;;;1.60;0.60;;;;;;;19.55;67.63;100637.47;5011401;28;20529;-79
2023/07/25 11:10:06;;;;;;;4.72;0.80;;;;;;;19.51;71.41;100633.91;5007762;28;20038;-78
2023/07/25 11:12:32;;;;;;;2.88;1.00;;;;;;;19.71;71.58;100633.81;4997895;28;20104;-79
2023/07/25 11:14:58;;;;;;;1.42;0.90;;;;;;;19.87;72.42;100635.81;5011147;28;20030;-78
2023/07/25 11:17:27;;;;;;;4.38;1.00;;;;;;;19.68;68.59;100638.31;5005274;28;20026;-78